createdAt,value
2018-06-18T00:02:56.286Z,52.80
2018-06-18T00:06:59.958Z,52.40
2018-06-18T00:11:03.712Z,52.60
2018-06-18T00:15:07.503Z,53.10
2018-06-18T00:19:11.211Z,52.80
2018-06-18T00:23:14.848Z,53.50
2018-06-18T00:27:18.624Z,53.20
2018-06-18T00:31:22.305Z,53.30
2018-06-18T00:35:25.985Z,53.20
2018-06-18T00:39:29.664Z,53.60
2018-06-18T00:43:33.359Z,54.40
2018-06-18T00:47:37.035Z,53.50
2018-06-18T00:51:40.725Z,53.50
2018-06-18T00:55:55.505Z,53.60
2018-06-18T00:59:59.175Z,53.60
2018-06-18T01:08:06.234Z,54.40
2018-06-18T01:12:09.931Z,54.30
2018-06-18T01:16:13.623Z,54.00
2018-06-18T01:20:17.287Z,54.90
2018-06-18T01:25:28.227Z,54.20
2018-06-18T01:29:31.848Z,53.90
2018-06-18T01:33:35.649Z,54.30
2018-06-18T01:37:39.323Z,54.10
2018-06-18T01:41:43.212Z,54.20
2018-06-18T01:45:46.892Z,54.40
2018-06-18T01:49:50.547Z,54.70
2018-06-18T01:53:54.229Z,54.00
2018-06-18T01:57:57.921Z,54.40
2018-06-18T02:02:01.586Z,54.20
2018-06-18T02:06:05.388Z,54.60
2018-06-18T02:10:09.084Z,54.40
2018-06-18T02:14:12.752Z,54.60
2018-06-18T02:18:16.435Z,54.30
2018-06-18T02:22:20.098Z,54.70
2018-06-18T02:26:23.870Z,54.50
2018-06-18T02:30:32.888Z,54.70
2018-06-18T02:34:41.872Z,55.00
2018-06-18T02:38:50.887Z,54.70
2018-06-18T02:42:54.556Z,56.40
2018-06-18T02:46:58.232Z,55.90
2018-06-18T02:51:01.977Z,55.80
2018-06-18T02:55:06.175Z,55.30
2018-06-18T02:59:09.859Z,56.50
2018-06-18T03:03:13.518Z,55.40
2018-06-18T03:07:17.188Z,56.20
2018-06-18T03:11:20.935Z,55.00
2018-06-18T03:15:24.667Z,55.10
2018-06-18T03:19:33.733Z,55.80
2018-06-18T03:23:42.738Z,55.30
2018-06-18T03:27:51.600Z,55.20
2018-06-18T03:31:57.046Z,55.30
2018-06-18T03:36:00.672Z,55.50
2018-06-18T03:40:04.417Z,55.40
2018-06-18T03:44:10.737Z,55.20
2018-06-18T03:48:14.480Z,55.50
2018-06-18T03:52:18.587Z,55.30
2018-06-18T03:56:25.233Z,55.70
2018-06-18T04:00:33.761Z,55.70
2018-06-18T04:04:47.433Z,55.60
2018-06-18T04:08:56.453Z,56.30
2018-06-18T04:13:00.171Z,55.80
2018-06-18T04:17:03.812Z,55.90
2018-06-18T04:21:07.509Z,56.50
2018-06-18T04:25:11.204Z,55.40
2018-06-18T04:29:14.892Z,55.70
2018-06-18T04:33:21.815Z,55.10
2018-06-18T04:37:25.517Z,56.00
2018-06-18T04:41:29.200Z,55.80
2018-06-18T04:45:38.086Z,55.80
2018-06-18T04:49:47.168Z,56.20
2018-06-18T04:53:50.871Z,56.10
2018-06-18T04:57:54.527Z,55.80
2018-06-18T05:01:59.293Z,55.90
2018-06-18T05:06:03.065Z,55.90
2018-06-18T05:10:27.850Z,55.90
2018-06-18T05:14:31.523Z,56.00
2018-06-18T05:18:35.205Z,55.90
2018-06-18T05:22:38.847Z,56.40
2018-06-18T05:26:47.147Z,56.30
2018-06-18T05:30:50.811Z,57.30
2018-06-18T05:34:54.497Z,56.50
2018-06-18T05:38:58.124Z,56.00
2018-06-18T05:43:01.773Z,56.20
2018-06-18T05:47:05.512Z,56.20
2018-06-18T05:51:09.195Z,57.00
2018-06-18T05:55:12.905Z,57.10
2018-06-18T05:59:16.519Z,56.30
2018-06-18T06:03:20.265Z,56.50
2018-06-18T06:07:23.919Z,56.90
2018-06-18T06:11:27.648Z,56.90
2018-06-18T06:15:31.320Z,56.60
2018-06-18T06:19:35.044Z,57.60
2018-06-18T06:23:38.689Z,58.40
2018-06-18T06:27:42.356Z,57.30
2018-06-18T06:31:46.034Z,57.30
2018-06-18T06:35:49.967Z,56.90
2018-06-18T06:39:53.619Z,56.90
2018-06-18T06:43:57.267Z,57.00
2018-06-18T06:48:00.952Z,57.50
2018-06-18T06:52:04.645Z,56.70
2018-06-18T06:56:08.340Z,57.90
2018-06-18T07:00:12.057Z,57.00
2018-06-18T07:04:15.696Z,58.00
2018-06-18T07:08:19.361Z,57.60
2018-06-18T07:12:23.946Z,58.80
2018-06-18T07:16:27.731Z,57.80
2018-06-18T07:20:31.728Z,58.40
2018-06-18T07:24:37.642Z,58.00
2018-06-18T07:28:41.324Z,57.90
2018-06-18T07:32:45.017Z,57.80
2018-06-18T07:36:48.735Z,59.50
2018-06-18T07:40:52.491Z,60.00
2018-06-18T07:44:56.217Z,58.70
2018-06-18T07:48:59.900Z,58.70
2018-06-18T07:53:03.731Z,59.30
2018-06-18T07:57:07.437Z,58.40
2018-06-18T08:01:11.103Z,59.20
2018-06-18T08:05:14.796Z,59.30
2018-06-18T08:09:18.489Z,59.50
2018-06-18T08:13:22.463Z,59.00
2018-06-18T08:21:31.918Z,57.90
2018-06-18T08:25:35.605Z,57.70
2018-06-18T08:29:39.356Z,57.80
2018-06-18T08:33:43.043Z,57.40
2018-06-18T08:37:46.713Z,57.60
2018-06-18T08:41:50.389Z,57.50
2018-06-18T08:45:54.040Z,58.00
2018-06-18T08:50:03.089Z,57.40
2018-06-18T08:54:11.897Z,57.70
2018-06-18T08:58:20.751Z,58.00
2018-06-18T09:02:28.560Z,57.40
2018-06-18T09:06:32.474Z,57.70
2018-06-18T09:10:36.167Z,57.70
2018-06-18T09:14:39.897Z,57.60
2018-06-18T09:18:43.565Z,58.20
2018-06-18T09:22:47.253Z,58.20
2018-06-18T09:26:55.140Z,58.40
2018-06-18T09:30:58.977Z,58.00
2018-06-18T09:35:02.669Z,58.10
2018-06-18T09:39:07.649Z,58.20
2018-06-18T09:43:11.309Z,57.90
2018-06-18T09:47:14.985Z,58.00
2018-06-18T09:51:23.999Z,58.20
2018-06-18T09:55:33.230Z,58.20
2018-06-18T09:59:42.397Z,58.20
2018-06-18T10:03:46.085Z,58.10
2018-06-18T10:07:49.899Z,57.90
2018-06-18T10:11:53.585Z,57.90
2018-06-18T10:15:57.272Z,57.90
2018-06-18T10:20:00.959Z,58.00
2018-06-18T10:24:04.720Z,57.30
2018-06-18T10:28:08.449Z,57.50
2018-06-18T10:32:17.479Z,57.00
2018-06-18T10:36:26.523Z,56.40
2018-06-18T10:40:35.557Z,56.90
2018-06-18T10:44:39.272Z,56.40
2018-06-18T10:48:42.961Z,56.10
2018-06-18T10:52:46.625Z,55.60
2018-06-18T10:56:50.396Z,56.20
2018-06-18T11:01:11.076Z,55.80
2018-06-18T11:05:14.852Z,55.70
2018-06-18T11:09:18.603Z,55.30
2018-06-18T11:13:22.389Z,55.60
2018-06-18T11:17:31.288Z,55.30
2018-06-18T11:21:40.267Z,55.70
2018-06-18T11:25:49.236Z,55.80
2018-06-18T11:29:53.018Z,55.20
2018-06-18T11:33:56.702Z,55.60
2018-06-18T11:38:00.398Z,55.70
2018-06-18T11:42:04.130Z,55.30
2018-06-18T11:46:07.879Z,54.80
2018-06-18T11:50:11.615Z,55.00
2018-06-18T11:54:15.290Z,55.30
2018-06-18T11:58:24.383Z,55.30
2018-06-18T12:02:33.335Z,54.70
2018-06-18T12:06:42.429Z,54.30
2018-06-18T12:10:47.096Z,54.30
2018-06-18T12:14:50.791Z,54.50
2018-06-18T12:18:54.441Z,54.60
2018-06-18T12:22:58.124Z,54.80
2018-06-18T12:27:02.306Z,54.00
2018-06-18T12:31:05.990Z,54.40
2018-06-18T12:35:09.633Z,54.60
2018-06-18T12:39:13.295Z,53.30
2018-06-18T12:43:20.084Z,54.40
2018-06-18T12:47:29.084Z,54.30
2018-06-18T12:51:38.147Z,54.50
2018-06-18T12:55:46.981Z,54.30
2018-06-18T12:59:50.660Z,53.90
2018-06-18T13:04:00.769Z,53.50
2018-06-18T13:08:04.670Z,53.80
2018-06-18T13:12:08.426Z,54.10
2018-06-18T13:16:12.073Z,53.90
2018-06-18T13:20:15.769Z,54.40
2018-06-18T13:24:19.485Z,53.80
2018-06-18T13:28:23.149Z,53.60
2018-06-18T13:32:26.815Z,53.50
2018-06-18T13:36:30.505Z,53.50
2018-06-18T13:40:39.485Z,53.20
2018-06-18T13:44:48.629Z,53.40
2018-06-18T13:48:56.111Z,53.50
2018-06-18T13:52:59.748Z,53.90
2018-06-18T13:57:03.461Z,53.90
2018-06-18T14:01:08.283Z,54.00
2018-06-18T14:05:11.947Z,53.90
2018-06-18T14:09:15.632Z,54.10
2018-06-18T14:13:19.369Z,54.10
2018-06-18T14:17:23.187Z,54.20
2018-06-18T14:21:26.876Z,54.10
2018-06-18T14:25:30.552Z,54.10
2018-06-18T14:29:39.463Z,54.00
2018-06-18T14:33:48.500Z,54.10
2018-06-18T14:37:57.423Z,54.00
2018-06-18T14:42:01.159Z,54.00
2018-06-18T14:46:04.927Z,54.00
2018-06-18T14:50:08.561Z,54.20
2018-06-18T14:54:12.270Z,54.40
2018-06-18T14:58:15.939Z,55.10
2018-06-18T15:02:19.657Z,54.50
2018-06-18T15:06:23.472Z,54.70
2018-06-18T15:10:32.435Z,54.80
2018-06-18T15:14:36.161Z,55.10
2018-06-18T15:18:39.830Z,55.30
2018-06-18T15:26:37.881Z,54.90
2018-06-18T15:30:41.586Z,55.30
2018-06-18T15:34:45.237Z,55.20
2018-06-18T15:38:48.947Z,55.40
2018-06-18T15:42:52.980Z,55.80
2018-06-18T15:46:57.934Z,55.70
2018-06-18T15:51:02.639Z,55.70
2018-06-18T15:55:07.959Z,55.60
2018-06-18T15:59:11.640Z,56.70
2018-06-18T16:03:15.352Z,57.90
2018-06-18T16:07:19.027Z,57.80
2018-06-18T16:11:22.731Z,57.30
2018-06-18T16:15:26.385Z,57.60
2018-06-18T16:19:30.053Z,57.40
2018-06-18T16:23:33.721Z,57.50
2018-06-18T16:27:37.428Z,57.90
2018-06-18T16:31:41.116Z,57.90
2018-06-18T16:35:44.740Z,57.70
2018-06-18T16:39:48.435Z,57.60
2018-06-18T16:43:52.405Z,57.80
2018-06-18T16:47:56.084Z,57.60
2018-06-18T16:51:59.757Z,57.80
2018-06-18T16:56:03.832Z,57.90
2018-06-18T17:00:07.557Z,57.90
2018-06-18T17:04:11.223Z,58.40
2018-06-18T17:08:14.892Z,57.70
2018-06-18T17:12:18.615Z,57.50
2018-06-18T17:16:22.531Z,58.10
2018-06-18T17:20:26.222Z,57.60
2018-06-18T17:24:29.903Z,57.80
2018-06-18T17:28:33.612Z,57.70
2018-06-18T17:32:37.352Z,57.70
2018-06-18T17:36:40.998Z,57.70
2018-06-18T17:40:44.711Z,58.60
2018-06-18T17:44:48.412Z,58.40
2018-06-18T17:48:52.097Z,58.60
2018-06-18T17:52:55.767Z,58.40
2018-06-18T17:56:59.411Z,58.50
2018-06-18T18:01:03.255Z,58.60
2018-06-18T18:05:06.928Z,58.50
2018-06-18T18:09:11.368Z,59.20
2018-06-18T18:13:15.150Z,59.00
2018-06-18T18:17:18.768Z,59.00
2018-06-18T18:21:22.440Z,58.60
2018-06-18T18:25:26.218Z,59.40
2018-06-18T18:29:29.895Z,58.60
2018-06-18T18:33:33.591Z,59.30
2018-06-18T18:37:37.305Z,59.00
2018-06-18T18:41:41.117Z,59.00
2018-06-18T18:45:44.787Z,58.60
2018-06-18T18:49:48.485Z,58.90
2018-06-18T18:53:52.172Z,59.30
2018-06-18T18:58:07.204Z,59.70
2018-06-18T19:02:10.897Z,59.30
2018-06-18T19:06:14.556Z,59.20
2018-06-18T19:10:22.235Z,58.80
2018-06-18T19:14:25.911Z,59.50
2018-06-18T19:18:29.647Z,59.00
2018-06-18T19:22:33.310Z,58.90
2018-06-18T19:26:37.061Z,59.10
2018-06-18T19:30:42.790Z,59.40
2018-06-18T19:34:46.556Z,58.80
2018-06-18T19:38:50.297Z,59.40
2018-06-18T19:42:53.965Z,58.80
2018-06-18T19:47:42.101Z,58.70
2018-06-18T19:51:45.792Z,58.60
2018-06-18T19:55:49.477Z,58.60
2018-06-18T19:59:53.168Z,58.70
2018-06-18T20:03:56.798Z,58.60
2018-06-18T20:08:02.742Z,58.90
2018-06-18T20:12:06.484Z,58.90
2018-06-18T20:16:10.171Z,58.70
2018-06-18T20:20:14.709Z,58.70
2018-06-18T20:24:18.338Z,58.70
2018-06-18T20:28:22.019Z,58.70
2018-06-18T20:32:25.665Z,58.80
2018-06-18T20:36:29.337Z,58.60
2018-06-18T20:40:33.024Z,58.70
2018-06-18T20:44:36.677Z,58.70
2018-06-18T20:48:40.339Z,58.60
2018-06-18T20:52:44.061Z,58.60
2018-06-18T20:56:47.735Z,58.70
2018-06-18T21:00:51.453Z,58.70
2018-06-18T21:04:55.178Z,58.70
2018-06-18T21:08:58.868Z,58.70
2018-06-18T21:13:02.584Z,58.80
2018-06-18T21:17:06.243Z,58.90
2018-06-18T21:21:09.957Z,61.90
2018-06-18T21:25:13.608Z,59.70
2018-06-18T21:29:17.288Z,60.70
2018-06-18T21:33:20.983Z,61.00
2018-06-18T21:37:24.745Z,61.30
2018-06-18T21:41:28.441Z,60.50
2018-06-18T21:45:32.166Z,61.20
2018-06-18T21:49:35.890Z,61.60
2018-06-18T21:53:39.540Z,63.40
2018-06-18T21:57:43.362Z,62.10
2018-06-18T22:01:47.071Z,61.80
2018-06-18T22:05:51.453Z,60.60
2018-06-18T22:09:55.182Z,61.20
2018-06-18T22:13:58.901Z,61.10
2018-06-18T22:18:02.623Z,61.30
2018-06-18T22:22:06.404Z,61.10
2018-06-18T22:26:10.108Z,61.30
2018-06-18T22:30:13.941Z,61.30
2018-06-18T22:34:17.623Z,61.50
2018-06-18T22:38:21.331Z,62.10
2018-06-18T22:42:25.114Z,62.50
2018-06-18T22:46:28.776Z,62.60
2018-06-18T22:50:32.432Z,62.80
2018-06-18T22:54:36.366Z,61.60
2018-06-18T22:58:40.059Z,61.20
2018-06-18T23:02:43.736Z,61.10
2018-06-18T23:10:51.364Z,61.10
2018-06-18T23:14:55.141Z,60.90
2018-06-18T23:18:58.849Z,60.80
2018-06-18T23:23:02.541Z,60.60
2018-06-18T23:27:06.740Z,60.90
2018-06-18T23:31:10.391Z,61.20
2018-06-18T23:35:14.099Z,61.40
2018-06-18T23:39:17.777Z,61.90
2018-06-18T23:43:21.440Z,61.50
2018-06-18T23:47:25.232Z,61.80
2018-06-18T23:51:28.887Z,62.00
2018-06-18T23:55:32.576Z,62.00
2018-06-18T23:59:36.261Z,62.10
